Main page
METAR-TAF:

METAR-TAF

Airports :

Gibraltar International Airport

Gibraltar, Gibraltar

latitude: 36-09N, longitude: 005-21W, elevation: 5 m

Current weather observation

The report was made 1 hour and 14 minutes ago, at 20:50 UTC
Wind 8 kt from the East
Temperature 21°C
Humidity 78%
Pressure 1019 hPa
Visibility 10 km or more
Few clouds at a height of 1400 ft
Broken clouds at a height of 25000 ft

METAR: LXGB 172050Z 09008KT 9999 FEW014 BKN250 21/17 Q1019

Time: 00:04 (22:04 UTC)

Forecast

The report was made 5 hours and 37 minutes ago, at 16:27 UTC
Forecast valid from 17 at 18 UTC to 18 at 03 UTC
Wind 8 kt from the East/Northeast
Visibility 10 km or more
Few clouds at a height of 1500 ft

TAF: LXGB 171627Z 1718/1803 07008KT 9999 FEW015

Weather observations and forecasts of more than 4000 airports (METAR and TAF reports).

The available stations are represented by yellow and red dots on the map.

Hover mouse over dot to see the name of the station.

Then click to see weather observations and forecasts.

To change the map : click on the green buttons with a black cross to zoom in, on the green button with a dash to zoom out, or on the green arrows for adjacent maps.


METAR-TAF: